sensor_id;sensor_type;location;lat;lon;timestamp;P1;durP1;ratioP1;P2;durP2;ratioP2
53040;SDS011;39326;42.650;23.248;2023-07-13T00:01:27;6.10;;;4.60;;
53040;SDS011;39326;42.650;23.248;2023-07-13T00:03:53;5.43;;;4.40;;
53040;SDS011;39326;42.650;23.248;2023-07-13T00:06:18;5.43;;;4.38;;
53040;SDS011;39326;42.650;23.248;2023-07-13T00:08:45;7.03;;;4.30;;
53040;SDS011;39326;42.650;23.248;2023-07-13T00:11:12;7.13;;;4.72;;
53040;SDS011;39326;42.650;23.248;2023-07-13T00:13:38;4.80;;;4.40;;
53040;SDS011;39326;42.650;23.248;2023-07-13T00:16:04;4.95;;;4.07;;
53040;SDS011;39326;42.650;23.248;2023-07-13T00:18:30;5.93;;;4.72;;
53040;SDS011;39326;42.650;23.248;2023-07-13T00:20:56;6.05;;;4.35;;
53040;SDS011;39326;42.650;23.248;2023-07-13T00:23:30;5.18;;;4.65;;
53040;SDS011;39326;42.650;23.248;2023-07-13T00:25:59;4.95;;;4.45;;
53040;SDS011;39326;42.650;23.248;2023-07-13T00:28:26;4.85;;;4.40;;
53040;SDS011;39326;42.650;23.248;2023-07-13T00:30:51;5.93;;;4.40;;
53040;SDS011;39326;42.650;23.248;2023-07-13T00:33:16;5.20;;;4.72;;
53040;SDS011;39326;42.650;23.248;2023-07-13T00:35:42;5.50;;;4.40;;
53040;SDS011;39326;42.650;23.248;2023-07-13T00:38:08;5.88;;;4.32;;
53040;SDS011;39326;42.650;23.248;2023-07-13T00:40:34;4.97;;;4.13;;
53040;SDS011;39326;42.650;23.248;2023-07-13T00:43:00;4.80;;;4.32;;
53040;SDS011;39326;42.650;23.248;2023-07-13T00:47:50;4.80;;;4.40;;
53040;SDS011;39326;42.650;23.248;2023-07-13T00:50:16;4.60;;;4.20;;
53040;SDS011;39326;42.650;23.248;2023-07-13T00:52:45;6.32;;;4.68;;
53040;SDS011;39326;42.650;23.248;2023-07-13T00:55:12;5.50;;;4.45;;
53040;SDS011;39326;42.650;23.248;2023-07-13T00:57:39;4.82;;;4.43;;
53040;SDS011;39326;42.650;23.248;2023-07-13T01:00:06;6.15;;;4.40;;
53040;SDS011;39326;42.650;23.248;2023-07-13T01:02:33;4.80;;;4.40;;
53040;SDS011;39326;42.650;23.248;2023-07-13T01:05:07;5.82;;;4.85;;
53040;SDS011;39326;42.650;23.248;2023-07-13T01:07:39;5.68;;;4.60;;
53040;SDS011;39326;42.650;23.248;2023-07-13T01:10:06;4.93;;;4.53;;
53040;SDS011;39326;42.650;23.248;2023-07-13T01:12:32;5.18;;;4.68;;
53040;SDS011;39326;42.650;23.248;2023-07-13T01:14:58;5.35;;;4.85;;
53040;SDS011;39326;42.650;23.248;2023-07-13T01:17:25;5.47;;;4.57;;
53040;SDS011;39326;42.650;23.248;2023-07-13T01:19:51;4.72;;;4.32;;
53040;SDS011;39326;42.650;23.248;2023-07-13T01:22:18;5.20;;;4.57;;
53040;SDS011;39326;42.650;23.248;2023-07-13T01:24:46;5.45;;;4.97;;
53040;SDS011;39326;42.650;23.248;2023-07-13T01:27:14;4.88;;;4.47;;
53040;SDS011;39326;42.650;23.248;2023-07-13T01:29:41;5.00;;;4.50;;
53040;SDS011;39326;42.650;23.248;2023-07-13T01:32:09;5.28;;;4.78;;
53040;SDS011;39326;42.650;23.248;2023-07-13T01:34:36;5.00;;;4.57;;
53040;SDS011;39326;42.650;23.248;2023-07-13T01:37:02;6.88;;;4.68;;
53040;SDS011;39326;42.650;23.248;2023-07-13T01:39:29;5.72;;;5.22;;
53040;SDS011;39326;42.650;23.248;2023-07-13T01:41:54;5.30;;;4.90;;
53040;SDS011;39326;42.650;23.248;2023-07-13T01:44:20;6.15;;;5.03;;
53040;SDS011;39326;42.650;23.248;2023-07-13T01:46:45;5.80;;;5.30;;
53040;SDS011;39326;42.650;23.248;2023-07-13T01:49:11;5.93;;;5.20;;
53040;SDS011;39326;42.650;23.248;2023-07-13T01:51:36;5.45;;;4.72;;
53040;SDS011;39326;42.650;23.248;2023-07-13T01:54:02;6.13;;;5.60;;
53040;SDS011;39326;42.650;23.248;2023-07-13T01:56:27;5.70;;;5.22;;
53040;SDS011;39326;42.650;23.248;2023-07-13T01:58:53;7.13;;;5.10;;
53040;SDS011;39326;42.650;23.248;2023-07-13T02:01:18;5.97;;;5.25;;
53040;SDS011;39326;42.650;23.248;2023-07-13T02:03:44;7.82;;;5.35;;
53040;SDS011;39326;42.650;23.248;2023-07-13T02:06:09;6.05;;;5.45;;
53040;SDS011;39326;42.650;23.248;2023-07-13T02:08:35;5.03;;;4.63;;
53040;SDS011;39326;42.650;23.248;2023-07-13T02:11:02;6.03;;;5.45;;
53040;SDS011;39326;42.650;23.248;2023-07-13T02:13:28;5.75;;;5.30;;
53040;SDS011;39326;42.650;23.248;2023-07-13T02:15:53;6.90;;;5.40;;
53040;SDS011;39326;42.650;23.248;2023-07-13T02:18:19;7.45;;;6.05;;
53040;SDS011;39326;42.650;23.248;2023-07-13T02:20:44;5.78;;;5.20;;
53040;SDS011;39326;42.650;23.248;2023-07-13T02:23:10;5.97;;;5.38;;
53040;SDS011;39326;42.650;23.248;2023-07-13T02:25:36;5.78;;;5.22;;
53040;SDS011;39326;42.650;23.248;2023-07-13T02:28:01;6.05;;;5.07;;
53040;SDS011;39326;42.650;23.248;2023-07-13T02:30:27;5.55;;;5.15;;
53040;SDS011;39326;42.650;23.248;2023-07-13T02:32:55;5.75;;;5.22;;
53040;SDS011;39326;42.650;23.248;2023-07-13T02:35:20;6.28;;;5.25;;
53040;SDS011;39326;42.650;23.248;2023-07-13T02:37:46;5.68;;;5.13;;
53040;SDS011;39326;42.650;23.248;2023-07-13T02:40:12;7.28;;;5.68;;
53040;SDS011;39326;42.650;23.248;2023-07-13T02:42:37;6.28;;;5.68;;
53040;SDS011;39326;42.650;23.248;2023-07-13T02:45:03;7.95;;;5.80;;
53040;SDS011;39326;42.650;23.248;2023-07-13T02:47:29;5.30;;;4.78;;
53040;SDS011;39326;42.650;23.248;2023-07-13T02:49:56;5.88;;;5.38;;
53040;SDS011;39326;42.650;23.248;2023-07-13T02:52:22;7.20;;;5.50;;
53040;SDS011;39326;42.650;23.248;2023-07-13T02:54:47;6.55;;;5.90;;
53040;SDS011;39326;42.650;23.248;2023-07-13T02:57:13;6.57;;;6.03;;
53040;SDS011;39326;42.650;23.248;2023-07-13T02:59:38;6.40;;;5.72;;
53040;SDS011;39326;42.650;23.248;2023-07-13T03:02:03;6.70;;;6.10;;
53040;SDS011;39326;42.650;23.248;2023-07-13T03:04:29;6.57;;;5.68;;
53040;SDS011;39326;42.650;23.248;2023-07-13T03:06:54;7.03;;;6.10;;
53040;SDS011;39326;42.650;23.248;2023-07-13T03:09:23;7.28;;;6.70;;
53040;SDS011;39326;42.650;23.248;2023-07-13T03:11:49;6.65;;;6.07;;
53040;SDS011;39326;42.650;23.248;2023-07-13T03:14:17;10.40;;;6.10;;
53040;SDS011;39326;42.650;23.248;2023-07-13T03:16:42;5.78;;;5.28;;
53040;SDS011;39326;42.650;23.248;2023-07-13T03:19:07;6.70;;;6.07;;
53040;SDS011;39326;42.650;23.248;2023-07-13T03:21:33;7.00;;;6.03;;
53040;SDS011;39326;42.650;23.248;2023-07-13T03:23:58;6.53;;;5.40;;
53040;SDS011;39326;42.650;23.248;2023-07-13T03:26:23;6.32;;;5.72;;
53040;SDS011;39326;42.650;23.248;2023-07-13T03:28:49;7.47;;;5.85;;
53040;SDS011;39326;42.650;23.248;2023-07-13T03:31:16;6.57;;;5.97;;
53040;SDS011;39326;42.650;23.248;2023-07-13T03:33:43;6.15;;;5.55;;
53040;SDS011;39326;42.650;23.248;2023-07-13T03:36:11;7.05;;;5.95;;
53040;SDS011;39326;42.650;23.248;2023-07-13T03:38:39;6.68;;;5.97;;
53040;SDS011;39326;42.650;23.248;2023-07-13T03:41:05;6.82;;;5.88;;
53040;SDS011;39326;42.650;23.248;2023-07-13T03:43:30;6.72;;;5.90;;
53040;SDS011;39326;42.650;23.248;2023-07-13T03:45:55;6.43;;;5.80;;
53040;SDS011;39326;42.650;23.248;2023-07-13T03:48:21;7.72;;;5.80;;
53040;SDS011;39326;42.650;23.248;2023-07-13T03:50:47;6.72;;;5.97;;
53040;SDS011;39326;42.650;23.248;2023-07-13T03:53:13;6.68;;;5.90;;
53040;SDS011;39326;42.650;23.248;2023-07-13T03:55:38;6.22;;;5.63;;
53040;SDS011;39326;42.650;23.248;2023-07-13T04:00:59;7.68;;;5.75;;
53040;SDS011;39326;42.650;23.248;2023-07-13T04:03:25;6.65;;;6.00;;
53040;SDS011;39326;42.650;23.248;2023-07-13T04:05:53;7.25;;;6.38;;
53040;SDS011;39326;42.650;23.248;2023-07-13T04:08:24;7.22;;;6.32;;
53040;SDS011;39326;42.650;23.248;2023-07-13T04:10:51;5.95;;;5.45;;
53040;SDS011;39326;42.650;23.248;2023-07-13T04:13:16;6.22;;;5.72;;
53040;SDS011;39326;42.650;23.248;2023-07-13T04:15:42;7.03;;;6.32;;
53040;SDS011;39326;42.650;23.248;2023-07-13T04:18:07;7.25;;;6.53;;
53040;SDS011;39326;42.650;23.248;2023-07-13T04:20:32;8.65;;;6.45;;
53040;SDS011;39326;42.650;23.248;2023-07-13T04:22:58;6.72;;;6.18;;
53040;SDS011;39326;42.650;23.248;2023-07-13T04:25:23;6.90;;;6.40;;
53040;SDS011;39326;42.650;23.248;2023-07-13T04:27:49;6.47;;;5.97;;
53040;SDS011;39326;42.650;23.248;2023-07-13T04:30:15;7.32;;;6.65;;
53040;SDS011;39326;42.650;23.248;2023-07-13T04:32:40;6.93;;;6.05;;
53040;SDS011;39326;42.650;23.248;2023-07-13T04:35:06;6.57;;;6.03;;
53040;SDS011;39326;42.650;23.248;2023-07-13T04:37:31;8.65;;;6.05;;
53040;SDS011;39326;42.650;23.248;2023-07-13T04:39:57;8.70;;;6.47;;
53040;SDS011;39326;42.650;23.248;2023-07-13T04:42:22;9.25;;;6.22;;
53040;SDS011;39326;42.650;23.248;2023-07-13T04:44:48;10.23;;;6.20;;
53040;SDS011;39326;42.650;23.248;2023-07-13T04:47:14;7.75;;;6.68;;
53040;SDS011;39326;42.650;23.248;2023-07-13T04:49:40;7.18;;;6.55;;
53040;SDS011;39326;42.650;23.248;2023-07-13T04:52:06;7.13;;;6.35;;
53040;SDS011;39326;42.650;23.248;2023-07-13T04:54:32;8.23;;;7.43;;
53040;SDS011;39326;42.650;23.248;2023-07-13T04:56:58;8.23;;;6.50;;
53040;SDS011;39326;42.650;23.248;2023-07-13T04:59:24;8.02;;;7.28;;
53040;SDS011;39326;42.650;23.248;2023-07-13T05:01:50;10.20;;;7.40;;
53040;SDS011;39326;42.650;23.248;2023-07-13T05:04:16;8.18;;;7.30;;
53040;SDS011;39326;42.650;23.248;2023-07-13T05:06:41;8.55;;;7.32;;
53040;SDS011;39326;42.650;23.248;2023-07-13T05:09:07;7.75;;;6.68;;
53040;SDS011;39326;42.650;23.248;2023-07-13T05:11:32;8.02;;;7.32;;
53040;SDS011;39326;42.650;23.248;2023-07-13T05:13:58;8.40;;;7.57;;
53040;SDS011;39326;42.650;23.248;2023-07-13T05:16:23;8.35;;;7.55;;
53040;SDS011;39326;42.650;23.248;2023-07-13T05:18:49;8.25;;;7.55;;
53040;SDS011;39326;42.650;23.248;2023-07-13T05:21:14;9.35;;;7.70;;
53040;SDS011;39326;42.650;23.248;2023-07-13T05:23:40;7.57;;;6.38;;
53040;SDS011;39326;42.650;23.248;2023-07-13T05:26:09;9.68;;;6.63;;
53040;SDS011;39326;42.650;23.248;2023-07-13T05:28:35;7.97;;;7.22;;
53040;SDS011;39326;42.650;23.248;2023-07-13T05:31:01;8.65;;;6.95;;
53040;SDS011;39326;42.650;23.248;2023-07-13T05:33:26;8.27;;;7.57;;
53040;SDS011;39326;42.650;23.248;2023-07-13T05:35:52;10.77;;;9.13;;
53040;SDS011;39326;42.650;23.248;2023-07-13T05:38:18;9.70;;;8.70;;
53040;SDS011;39326;42.650;23.248;2023-07-13T05:40:43;11.23;;;9.60;;
53040;SDS011;39326;42.650;23.248;2023-07-13T05:43:09;9.70;;;8.68;;
53040;SDS011;39326;42.650;23.248;2023-07-13T05:45:35;10.95;;;9.85;;
53040;SDS011;39326;42.650;23.248;2023-07-13T05:48:00;10.85;;;9.70;;
53040;SDS011;39326;42.650;23.248;2023-07-13T05:50:26;11.60;;;8.60;;
53040;SDS011;39326;42.650;23.248;2023-07-13T05:52:52;11.30;;;9.73;;
53040;SDS011;39326;42.650;23.248;2023-07-13T05:55:17;9.70;;;8.70;;
53040;SDS011;39326;42.650;23.248;2023-07-13T05:57:43;10.82;;;8.60;;
53040;SDS011;39326;42.650;23.248;2023-07-13T06:00:09;14.27;;;9.65;;
53040;SDS011;39326;42.650;23.248;2023-07-13T06:02:35;14.27;;;8.82;;
53040;SDS011;39326;42.650;23.248;2023-07-13T06:05:00;10.70;;;8.88;;
53040;SDS011;39326;42.650;23.248;2023-07-13T06:07:26;11.25;;;8.60;;
53040;SDS011;39326;42.650;23.248;2023-07-13T06:09:51;9.23;;;8.43;;
53040;SDS011;39326;42.650;23.248;2023-07-13T06:12:17;10.80;;;8.65;;
53040;SDS011;39326;42.650;23.248;2023-07-13T06:14:42;10.32;;;9.35;;
53040;SDS011;39326;42.650;23.248;2023-07-13T06:17:07;10.18;;;9.00;;
53040;SDS011;39326;42.650;23.248;2023-07-13T06:19:34;10.70;;;9.60;;
53040;SDS011;39326;42.650;23.248;2023-07-13T06:21:59;8.77;;;8.07;;
53040;SDS011;39326;42.650;23.248;2023-07-13T06:24:25;9.68;;;8.38;;
53040;SDS011;39326;42.650;23.248;2023-07-13T06:26:51;9.25;;;8.30;;
53040;SDS011;39326;42.650;23.248;2023-07-13T06:29:16;9.43;;;8.30;;
53040;SDS011;39326;42.650;23.248;2023-07-13T06:31:42;9.80;;;8.27;;
53040;SDS011;39326;42.650;23.248;2023-07-13T06:34:07;9.00;;;7.80;;
53040;SDS011;39326;42.650;23.248;2023-07-13T06:36:33;9.77;;;8.73;;
53040;SDS011;39326;42.650;23.248;2023-07-13T06:38:58;11.98;;;9.05;;
53040;SDS011;39326;42.650;23.248;2023-07-13T06:41:24;12.40;;;9.05;;
53040;SDS011;39326;42.650;23.248;2023-07-13T06:43:51;9.73;;;8.93;;
53040;SDS011;39326;42.650;23.248;2023-07-13T06:46:17;11.65;;;9.45;;
53040;SDS011;39326;42.650;23.248;2023-07-13T06:48:45;10.15;;;9.15;;
53040;SDS011;39326;42.650;23.248;2023-07-13T06:51:11;10.70;;;9.43;;
53040;SDS011;39326;42.650;23.248;2023-07-13T06:53:36;11.88;;;9.68;;
53040;SDS011;39326;42.650;23.248;2023-07-13T06:56:01;11.70;;;10.25;;
53040;SDS011;39326;42.650;23.248;2023-07-13T06:58:27;10.35;;;9.30;;
53040;SDS011;39326;42.650;23.248;2023-07-13T07:00:53;9.55;;;8.68;;
53040;SDS011;39326;42.650;23.248;2023-07-13T07:03:18;10.95;;;9.82;;
53040;SDS011;39326;42.650;23.248;2023-07-13T07:05:43;12.95;;;9.73;;
53040;SDS011;39326;42.650;23.248;2023-07-13T07:08:09;12.57;;;10.13;;
53040;SDS011;39326;42.650;23.248;2023-07-13T07:10:35;10.05;;;9.05;;
53040;SDS011;39326;42.650;23.248;2023-07-13T07:13:01;10.50;;;9.20;;
53040;SDS011;39326;42.650;23.248;2023-07-13T07:15:27;10.82;;;9.82;;
53040;SDS011;39326;42.650;23.248;2023-07-13T07:17:52;13.65;;;9.45;;
53040;SDS011;39326;42.650;23.248;2023-07-13T07:20:18;11.57;;;9.63;;
53040;SDS011;39326;42.650;23.248;2023-07-13T07:22:43;9.95;;;8.98;;
53040;SDS011;39326;42.650;23.248;2023-07-13T07:25:09;9.43;;;8.45;;
53040;SDS011;39326;42.650;23.248;2023-07-13T07:27:34;10.13;;;9.18;;
53040;SDS011;39326;42.650;23.248;2023-07-13T07:30:00;10.70;;;8.82;;
53040;SDS011;39326;42.650;23.248;2023-07-13T07:32:25;10.07;;;9.18;;
53040;SDS011;39326;42.650;23.248;2023-07-13T07:34:54;11.65;;;8.68;;
53040;SDS011;39326;42.650;23.248;2023-07-13T07:37:19;15.02;;;9.35;;
53040;SDS011;39326;42.650;23.248;2023-07-13T07:39:45;9.88;;;8.52;;
53040;SDS011;39326;42.650;23.248;2023-07-13T07:42:10;9.98;;;9.05;;
53040;SDS011;39326;42.650;23.248;2023-07-13T07:44:37;10.27;;;9.05;;
53040;SDS011;39326;42.650;23.248;2023-07-13T07:47:05;10.05;;;9.07;;
53040;SDS011;39326;42.650;23.248;2023-07-13T07:49:32;10.07;;;9.18;;
53040;SDS011;39326;42.650;23.248;2023-07-13T07:51:57;10.98;;;9.88;;
53040;SDS011;39326;42.650;23.248;2023-07-13T07:54:22;10.45;;;9.45;;
53040;SDS011;39326;42.650;23.248;2023-07-13T07:56:48;10.32;;;9.48;;
53040;SDS011;39326;42.650;23.248;2023-07-13T07:59:13;11.63;;;9.65;;
53040;SDS011;39326;42.650;23.248;2023-07-13T08:01:39;12.70;;;9.98;;
53040;SDS011;39326;42.650;23.248;2023-07-13T08:04:04;10.48;;;9.43;;
53040;SDS011;39326;42.650;23.248;2023-07-13T08:06:31;10.00;;;8.57;;
53040;SDS011;39326;42.650;23.248;2023-07-13T08:08:58;13.75;;;9.20;;
53040;SDS011;39326;42.650;23.248;2023-07-13T08:11:24;11.38;;;9.90;;
53040;SDS011;39326;42.650;23.248;2023-07-13T08:13:50;10.07;;;9.07;;
53040;SDS011;39326;42.650;23.248;2023-07-13T08:16:16;10.85;;;9.75;;
53040;SDS011;39326;42.650;23.248;2023-07-13T08:18:41;10.65;;;9.65;;
53040;SDS011;39326;42.650;23.248;2023-07-13T08:21:07;11.05;;;8.75;;
53040;SDS011;39326;42.650;23.248;2023-07-13T08:23:34;9.77;;;8.52;;
53040;SDS011;39326;42.650;23.248;2023-07-13T08:25:59;12.68;;;9.10;;
53040;SDS011;39326;42.650;23.248;2023-07-13T08:28:29;12.55;;;9.75;;
53040;SDS011;39326;42.650;23.248;2023-07-13T08:30:59;10.48;;;9.20;;
53040;SDS011;39326;42.650;23.248;2023-07-13T08:33:26;10.23;;;9.23;;
53040;SDS011;39326;42.650;23.248;2023-07-13T08:35:51;10.02;;;9.02;;
53040;SDS011;39326;42.650;23.248;2023-07-13T08:38:16;10.55;;;9.02;;
53040;SDS011;39326;42.650;23.248;2023-07-13T08:40:43;10.63;;;8.43;;
53040;SDS011;39326;42.650;23.248;2023-07-13T08:43:13;8.80;;;8.00;;
53040;SDS011;39326;42.650;23.248;2023-07-13T08:45:52;9.65;;;8.38;;
53040;SDS011;39326;42.650;23.248;2023-07-13T08:48:31;13.00;;;9.73;;
53040;SDS011;39326;42.650;23.248;2023-07-13T08:53:59;9.25;;;8.25;;
53040;SDS011;39326;42.650;23.248;2023-07-13T08:56:28;11.90;;;8.48;;
53040;SDS011;39326;42.650;23.248;2023-07-13T08:58:56;9.38;;;7.95;;
53040;SDS011;39326;42.650;23.248;2023-07-13T09:04:19;8.80;;;7.90;;
53040;SDS011;39326;42.650;23.248;2023-07-13T09:15:03;9.70;;;8.60;;
53040;SDS011;39326;42.650;23.248;2023-07-13T09:17:39;9.77;;;8.40;;
53040;SDS011;39326;42.650;23.248;2023-07-13T09:23:10;10.18;;;9.10;;
53040;SDS011;39326;42.650;23.248;2023-07-13T09:25:40;11.07;;;8.57;;
53040;SDS011;39326;42.650;23.248;2023-07-13T09:28:29;10.85;;;8.25;;
53040;SDS011;39326;42.650;23.248;2023-07-13T09:33:21;9.32;;;8.30;;
53040;SDS011;39326;42.650;23.248;2023-07-13T09:35:47;10.85;;;8.40;;
53040;SDS011;39326;42.650;23.248;2023-07-13T09:38:15;8.88;;;7.78;;
53040;SDS011;39326;42.650;23.248;2023-07-13T09:40:46;8.93;;;7.95;;
53040;SDS011;39326;42.650;23.248;2023-07-13T09:43:22;9.90;;;7.90;;
53040;SDS011;39326;42.650;23.248;2023-07-13T09:45:47;6.57;;;5.90;;
53040;SDS011;39326;42.650;23.248;2023-07-13T09:48:13;6.13;;;5.28;;
53040;SDS011;39326;42.650;23.248;2023-07-13T09:50:41;5.38;;;4.85;;
53040;SDS011;39326;42.650;23.248;2023-07-13T09:53:11;5.80;;;5.20;;
53040;SDS011;39326;42.650;23.248;2023-07-13T09:55:41;7.07;;;5.20;;
53040;SDS011;39326;42.650;23.248;2023-07-13T09:58:16;7.97;;;5.05;;
53040;SDS011;39326;42.650;23.248;2023-07-13T10:00:54;5.30;;;4.80;;
53040;SDS011;39326;42.650;23.248;2023-07-13T10:03:26;6.43;;;4.60;;
53040;SDS011;39326;42.650;23.248;2023-07-13T10:05:53;21.02;;;6.57;;
53040;SDS011;39326;42.650;23.248;2023-07-13T10:08:21;7.95;;;5.38;;
53040;SDS011;39326;42.650;23.248;2023-07-13T10:11:29;7.25;;;5.13;;
53040;SDS011;39326;42.650;23.248;2023-07-13T10:13:59;6.40;;;4.95;;
53040;SDS011;39326;42.650;23.248;2023-07-13T10:16:31;7.68;;;5.63;;
53040;SDS011;39326;42.650;23.248;2023-07-13T10:18:59;6.95;;;5.05;;
53040;SDS011;39326;42.650;23.248;2023-07-13T10:21:27;5.82;;;5.13;;
53040;SDS011;39326;42.650;23.248;2023-07-13T10:24:00;5.60;;;5.10;;
53040;SDS011;39326;42.650;23.248;2023-07-13T10:29:20;6.82;;;5.90;;
53040;SDS011;39326;42.650;23.248;2023-07-13T10:31:48;6.40;;;5.22;;
53040;SDS011;39326;42.650;23.248;2023-07-13T10:34:15;5.82;;;5.00;;
53040;SDS011;39326;42.650;23.248;2023-07-13T10:36:45;6.10;;;5.35;;
53040;SDS011;39326;42.650;23.248;2023-07-13T10:39:14;6.40;;;5.05;;
53040;SDS011;39326;42.650;23.248;2023-07-13T10:41:51;5.80;;;5.30;;
53040;SDS011;39326;42.650;23.248;2023-07-13T10:44:28;6.63;;;5.68;;
53040;SDS011;39326;42.650;23.248;2023-07-13T10:47:05;5.93;;;5.43;;
53040;SDS011;39326;42.650;23.248;2023-07-13T10:49:33;6.65;;;4.80;;
53040;SDS011;39326;42.650;23.248;2023-07-13T10:52:01;6.63;;;5.38;;
53040;SDS011;39326;42.650;23.248;2023-07-13T10:54:30;6.63;;;5.40;;
53040;SDS011;39326;42.650;23.248;2023-07-13T11:02:35;9.13;;;5.70;;
53040;SDS011;39326;42.650;23.248;2023-07-13T11:05:12;6.45;;;5.85;;
53040;SDS011;39326;42.650;23.248;2023-07-13T11:07:52;6.97;;;5.40;;
53040;SDS011;39326;42.650;23.248;2023-07-13T11:16:00;6.47;;;5.50;;
53040;SDS011;39326;42.650;23.248;2023-07-13T11:18:25;7.82;;;5.38;;
53040;SDS011;39326;42.650;23.248;2023-07-13T11:20:51;7.45;;;5.43;;
53040;SDS011;39326;42.650;23.248;2023-07-13T11:23:21;6.93;;;5.18;;
53040;SDS011;39326;42.650;23.248;2023-07-13T11:25:53;7.00;;;5.60;;
53040;SDS011;39326;42.650;23.248;2023-07-13T11:28:22;6.78;;;5.47;;
53040;SDS011;39326;42.650;23.248;2023-07-13T11:30:59;6.30;;;5.35;;
53040;SDS011;39326;42.650;23.248;2023-07-13T11:36:15;7.25;;;5.65;;
53040;SDS011;39326;42.650;23.248;2023-07-13T11:38:42;9.43;;;5.43;;
53040;SDS011;39326;42.650;23.248;2023-07-13T11:43:43;7.05;;;5.30;;
53040;SDS011;39326;42.650;23.248;2023-07-13T11:46:23;6.40;;;5.25;;
53040;SDS011;39326;42.650;23.248;2023-07-13T11:48:50;7.38;;;5.43;;
53040;SDS011;39326;42.650;23.248;2023-07-13T11:51:27;6.18;;;5.57;;
53040;SDS011;39326;42.650;23.248;2023-07-13T11:53:56;5.63;;;5.13;;
53040;SDS011;39326;42.650;23.248;2023-07-13T11:56:26;8.55;;;5.82;;
53040;SDS011;39326;42.650;23.248;2023-07-13T11:58:53;5.70;;;5.20;;
53040;SDS011;39326;42.650;23.248;2023-07-13T12:01:22;7.03;;;5.60;;
53040;SDS011;39326;42.650;23.248;2023-07-13T12:03:51;5.78;;;4.80;;
53040;SDS011;39326;42.650;23.248;2023-07-13T12:06:24;5.40;;;4.90;;
53040;SDS011;39326;42.650;23.248;2023-07-13T12:08:55;7.93;;;5.35;;
53040;SDS011;39326;42.650;23.248;2023-07-13T12:11:22;9.52;;;5.78;;
53040;SDS011;39326;42.650;23.248;2023-07-13T12:13:47;6.18;;;5.05;;
53040;SDS011;39326;42.650;23.248;2023-07-13T12:16:17;7.32;;;5.55;;
53040;SDS011;39326;42.650;23.248;2023-07-13T12:18:52;7.18;;;5.18;;
53040;SDS011;39326;42.650;23.248;2023-07-13T12:21:19;5.88;;;5.28;;
53040;SDS011;39326;42.650;23.248;2023-07-13T12:23:47;7.40;;;5.50;;
53040;SDS011;39326;42.650;23.248;2023-07-13T12:26:14;6.05;;;5.55;;
53040;SDS011;39326;42.650;23.248;2023-07-13T12:32:03;8.00;;;5.43;;
53040;SDS011;39326;42.650;23.248;2023-07-13T12:34:18;5.68;;;5.07;;
53040;SDS011;39326;42.650;23.248;2023-07-13T12:39:32;7.57;;;5.30;;
53040;SDS011;39326;42.650;23.248;2023-07-13T12:42:25;9.95;;;5.50;;
53040;SDS011;39326;42.650;23.248;2023-07-13T12:45:03;9.50;;;5.43;;
53040;SDS011;39326;42.650;23.248;2023-07-13T12:47:43;6.50;;;5.20;;
53040;SDS011;39326;42.650;23.248;2023-07-13T12:50:17;6.97;;;5.50;;
53040;SDS011;39326;42.650;23.248;2023-07-13T12:52:49;6.30;;;5.22;;
53040;SDS011;39326;42.650;23.248;2023-07-13T12:55:28;8.15;;;5.57;;
53040;SDS011;39326;42.650;23.248;2023-07-13T12:57:58;7.82;;;5.25;;
53040;SDS011;39326;42.650;23.248;2023-07-13T13:00:29;7.25;;;5.32;;
53040;SDS011;39326;42.650;23.248;2023-07-13T13:02:58;9.50;;;5.53;;
53040;SDS011;39326;42.650;23.248;2023-07-13T13:05:29;9.88;;;5.38;;
53040;SDS011;39326;42.650;23.248;2023-07-13T13:07:55;8.38;;;5.53;;
53040;SDS011;39326;42.650;23.248;2023-07-13T13:10:20;6.40;;;5.35;;
53040;SDS011;39326;42.650;23.248;2023-07-13T13:12:46;7.18;;;5.03;;
53040;SDS011;39326;42.650;23.248;2023-07-13T13:15:12;7.32;;;5.22;;
53040;SDS011;39326;42.650;23.248;2023-07-13T13:17:38;7.93;;;5.13;;
53040;SDS011;39326;42.650;23.248;2023-07-13T13:20:13;9.52;;;5.30;;
53040;SDS011;39326;42.650;23.248;2023-07-13T13:22:41;7.40;;;5.05;;
53040;SDS011;39326;42.650;23.248;2023-07-13T13:25:08;7.32;;;5.10;;
53040;SDS011;39326;42.650;23.248;2023-07-13T13:27:38;7.10;;;5.22;;
53040;SDS011;39326;42.650;23.248;2023-07-13T13:30:12;7.88;;;5.00;;
53040;SDS011;39326;42.650;23.248;2023-07-13T13:32:42;8.88;;;5.28;;
53040;SDS011;39326;42.650;23.248;2023-07-13T13:35:16;7.53;;;5.30;;
53040;SDS011;39326;42.650;23.248;2023-07-13T13:37:43;10.95;;;5.32;;
53040;SDS011;39326;42.650;23.248;2023-07-13T13:40:16;7.47;;;4.95;;
53040;SDS011;39326;42.650;23.248;2023-07-13T13:42:48;8.07;;;5.22;;
53040;SDS011;39326;42.650;23.248;2023-07-13T13:45:13;7.80;;;5.70;;
53040;SDS011;39326;42.650;23.248;2023-07-13T13:47:41;8.00;;;5.72;;
53040;SDS011;39326;42.650;23.248;2023-07-13T13:50:16;8.18;;;4.95;;
53040;SDS011;39326;42.650;23.248;2023-07-13T13:52:45;10.02;;;5.80;;
53040;SDS011;39326;42.650;23.248;2023-07-13T13:57:39;9.77;;;5.35;;
53040;SDS011;39326;42.650;23.248;2023-07-13T14:00:07;12.05;;;5.38;;
53040;SDS011;39326;42.650;23.248;2023-07-13T14:02:36;9.57;;;5.45;;
53040;SDS011;39326;42.650;23.248;2023-07-13T14:05:02;8.80;;;5.53;;
53040;SDS011;39326;42.650;23.248;2023-07-13T14:07:29;8.82;;;5.80;;
53040;SDS011;39326;42.650;23.248;2023-07-13T14:09:58;9.93;;;5.20;;
53040;SDS011;39326;42.650;23.248;2023-07-13T14:12:26;6.45;;;5.70;;
53040;SDS011;39326;42.650;23.248;2023-07-13T14:14:55;8.45;;;5.30;;
53040;SDS011;39326;42.650;23.248;2023-07-13T14:17:24;7.95;;;5.15;;
53040;SDS011;39326;42.650;23.248;2023-07-13T14:19:52;6.63;;;5.35;;
53040;SDS011;39326;42.650;23.248;2023-07-13T14:22:22;8.23;;;5.70;;
53040;SDS011;39326;42.650;23.248;2023-07-13T14:24:49;8.38;;;5.45;;
53040;SDS011;39326;42.650;23.248;2023-07-13T14:27:16;5.75;;;4.97;;
53040;SDS011;39326;42.650;23.248;2023-07-13T14:29:41;9.43;;;5.55;;
53040;SDS011;39326;42.650;23.248;2023-07-13T14:32:11;8.23;;;5.30;;
53040;SDS011;39326;42.650;23.248;2023-07-13T14:34:37;8.73;;;5.38;;
53040;SDS011;39326;42.650;23.248;2023-07-13T14:37:03;7.28;;;5.65;;
53040;SDS011;39326;42.650;23.248;2023-07-13T14:39:29;6.50;;;5.40;;
53040;SDS011;39326;42.650;23.248;2023-07-13T14:41:56;7.75;;;5.10;;
53040;SDS011;39326;42.650;23.248;2023-07-13T14:44:28;6.13;;;5.53;;
53040;SDS011;39326;42.650;23.248;2023-07-13T14:46:56;9.05;;;5.90;;
53040;SDS011;39326;42.650;23.248;2023-07-13T14:49:33;10.20;;;5.88;;
53040;SDS011;39326;42.650;23.248;2023-07-13T14:52:00;10.73;;;5.40;;
53040;SDS011;39326;42.650;23.248;2023-07-13T14:54:27;7.30;;;5.28;;
53040;SDS011;39326;42.650;23.248;2023-07-13T14:56:52;9.90;;;5.65;;
53040;SDS011;39326;42.650;23.248;2023-07-13T14:59:18;7.88;;;5.53;;
53040;SDS011;39326;42.650;23.248;2023-07-13T15:01:47;7.40;;;5.00;;
53040;SDS011;39326;42.650;23.248;2023-07-13T15:04:14;6.90;;;5.43;;
53040;SDS011;39326;42.650;23.248;2023-07-13T15:09:24;8.82;;;5.72;;
53040;SDS011;39326;42.650;23.248;2023-07-13T15:11:51;7.82;;;5.22;;
53040;SDS011;39326;42.650;23.248;2023-07-13T15:14:20;8.43;;;5.07;;
53040;SDS011;39326;42.650;23.248;2023-07-13T15:16:46;7.63;;;5.20;;
53040;SDS011;39326;42.650;23.248;2023-07-13T15:19:14;6.57;;;5.47;;
53040;SDS011;39326;42.650;23.248;2023-07-13T15:21:41;9.40;;;5.50;;
53040;SDS011;39326;42.650;23.248;2023-07-13T15:24:08;8.65;;;4.93;;
53040;SDS011;39326;42.650;23.248;2023-07-13T15:26:35;6.65;;;4.88;;
53040;SDS011;39326;42.650;23.248;2023-07-13T15:29:00;11.35;;;5.97;;